sensor_id;sensor_type;location;lat;lon;timestamp;pressure;altitude;pressure_sealevel;temperature;humidity
73651;BME280;61944;52.538;6.108;2023-08-06T00:01:47;100420.66;;;15.43;100.00
73651;BME280;61944;52.538;6.108;2023-08-06T00:04:12;100407.88;;;15.35;100.00
73651;BME280;61944;52.538;6.108;2023-08-06T00:06:37;100411.09;;;15.34;100.00
73651;BME280;61944;52.538;6.108;2023-08-06T00:09:03;100422.09;;;15.55;100.00
73651;BME280;61944;52.538;6.108;2023-08-06T00:11:28;100412.41;;;15.25;100.00
73651;BME280;61944;52.538;6.108;2023-08-06T00:13:54;100406.22;;;15.38;100.00
73651;BME280;61944;52.538;6.108;2023-08-06T00:16:19;100396.59;;;15.35;100.00
73651;BME280;61944;52.538;6.108;2023-08-06T00:18:45;100410.34;;;15.30;100.00
73651;BME280;61944;52.538;6.108;2023-08-06T00:21:10;100422.22;;;15.48;100.00
73651;BME280;61944;52.538;6.108;2023-08-06T00:23:37;100411.00;;;15.41;100.00
73651;BME280;61944;52.538;6.108;2023-08-06T00:26:03;100413.44;;;15.39;100.00
73651;BME280;61944;52.538;6.108;2023-08-06T00:28:28;100388.34;;;15.17;100.00
73651;BME280;61944;52.538;6.108;2023-08-06T00:30:54;100402.41;;;15.21;100.00
73651;BME280;61944;52.538;6.108;2023-08-06T00:33:23;100391.09;;;15.24;100.00
73651;BME280;61944;52.538;6.108;2023-08-06T00:35:49;100406.44;;;15.51;100.00
73651;BME280;61944;52.538;6.108;2023-08-06T00:38:14;100404.31;;;15.28;100.00
73651;BME280;61944;52.538;6.108;2023-08-06T00:40:40;100385.06;;;15.22;100.00
73651;BME280;61944;52.538;6.108;2023-08-06T00:43:06;100395.88;;;15.28;100.00
73651;BME280;61944;52.538;6.108;2023-08-06T00:45:34;100409.53;;;15.33;100.00
73651;BME280;61944;52.538;6.108;2023-08-06T00:48:01;100407.81;;;15.39;100.00
73651;BME280;61944;52.538;6.108;2023-08-06T00:50:27;100385.81;;;15.27;100.00
73651;BME280;61944;52.538;6.108;2023-08-06T00:52:52;100387.59;;;15.44;100.00
73651;BME280;61944;52.538;6.108;2023-08-06T00:55:18;100389.41;;;15.31;100.00
73651;BME280;61944;52.538;6.108;2023-08-06T00:57:43;100401.34;;;15.42;100.00
73651;BME280;61944;52.538;6.108;2023-08-06T01:00:09;100395.59;;;15.49;100.00
73651;BME280;61944;52.538;6.108;2023-08-06T01:02:36;100401.38;;;15.38;100.00
73651;BME280;61944;52.538;6.108;2023-08-06T01:05:02;100404.91;;;15.46;100.00
73651;BME280;61944;52.538;6.108;2023-08-06T01:10:18;100404.16;;;15.42;100.00
73651;BME280;61944;52.538;6.108;2023-08-06T01:15:29;100394.47;;;15.12;100.00
73651;BME280;61944;52.538;6.108;2023-08-06T01:17:57;100407.91;;;15.32;100.00
73651;BME280;61944;52.538;6.108;2023-08-06T01:20:28;100386.13;;;15.32;100.00
73651;BME280;61944;52.538;6.108;2023-08-06T01:22:54;100406.13;;;15.45;100.00
73651;BME280;61944;52.538;6.108;2023-08-06T01:25:19;100385.53;;;15.17;100.00
73651;BME280;61944;52.538;6.108;2023-08-06T01:27:48;100390.41;;;15.13;100.00
73651;BME280;61944;52.538;6.108;2023-08-06T01:30:27;100398.84;;;15.13;100.00
73651;BME280;61944;52.538;6.108;2023-08-06T01:33:00;100386.53;;;15.00;100.00
73651;BME280;61944;52.538;6.108;2023-08-06T01:35:30;100395.28;;;15.09;100.00
73651;BME280;61944;52.538;6.108;2023-08-06T01:37:56;100388.28;;;15.24;100.00
73651;BME280;61944;52.538;6.108;2023-08-06T01:40:23;100378.53;;;15.29;100.00
73651;BME280;61944;52.538;6.108;2023-08-06T01:42:48;100392.97;;;15.35;100.00
73651;BME280;61944;52.538;6.108;2023-08-06T01:45:14;100387.03;;;14.95;100.00
73651;BME280;61944;52.538;6.108;2023-08-06T01:47:39;100390.50;;;15.06;100.00
73651;BME280;61944;52.538;6.108;2023-08-06T01:50:06;100380.81;;;15.07;100.00
73651;BME280;61944;52.538;6.108;2023-08-06T01:52:31;100377.91;;;15.14;100.00
73651;BME280;61944;52.538;6.108;2023-08-06T01:54:57;100386.25;;;15.25;100.00
73651;BME280;61944;52.538;6.108;2023-08-06T01:57:22;100381.88;;;15.20;100.00
73651;BME280;61944;52.538;6.108;2023-08-06T01:59:48;100374.25;;;15.17;100.00
73651;BME280;61944;52.538;6.108;2023-08-06T02:02:13;100391.25;;;15.10;100.00
73651;BME280;61944;52.538;6.108;2023-08-06T02:04:38;100388.69;;;14.89;100.00
73651;BME280;61944;52.538;6.108;2023-08-06T02:07:04;100368.63;;;14.83;100.00
73651;BME280;61944;52.538;6.108;2023-08-06T02:09:29;100385.69;;;15.03;100.00
73651;BME280;61944;52.538;6.108;2023-08-06T02:11:55;100388.06;;;15.08;100.00
73651;BME280;61944;52.538;6.108;2023-08-06T02:14:20;100387.03;;;15.25;100.00
73651;BME280;61944;52.538;6.108;2023-08-06T02:16:46;100381.41;;;15.25;100.00
73651;BME280;61944;52.538;6.108;2023-08-06T02:19:12;100379.06;;;15.20;100.00
73651;BME280;61944;52.538;6.108;2023-08-06T02:21:38;100352.75;;;14.96;100.00
73651;BME280;61944;52.538;6.108;2023-08-06T02:24:05;100348.00;;;14.90;100.00
73651;BME280;61944;52.538;6.108;2023-08-06T02:26:30;100358.69;;;15.06;100.00
73651;BME280;61944;52.538;6.108;2023-08-06T02:28:55;100369.50;;;15.11;100.00
73651;BME280;61944;52.538;6.108;2023-08-06T02:31:21;100359.09;;;15.08;100.00
73651;BME280;61944;52.538;6.108;2023-08-06T02:33:46;100374.53;;;14.92;100.00
73651;BME280;61944;52.538;6.108;2023-08-06T02:36:11;100353.56;;;14.97;100.00
73651;BME280;61944;52.538;6.108;2023-08-06T02:38:37;100373.19;;;15.08;100.00
73651;BME280;61944;52.538;6.108;2023-08-06T02:41:03;100353.09;;;15.02;100.00
73651;BME280;61944;52.538;6.108;2023-08-06T02:43:29;100348.81;;;14.90;100.00
73651;BME280;61944;52.538;6.108;2023-08-06T02:45:59;100344.16;;;14.76;100.00
73651;BME280;61944;52.538;6.108;2023-08-06T02:48:25;100363.63;;;14.98;100.00
73651;BME280;61944;52.538;6.108;2023-08-06T02:50:51;100356.03;;;14.95;100.00
73651;BME280;61944;52.538;6.108;2023-08-06T02:53:16;100330.88;;;14.73;100.00
73651;BME280;61944;52.538;6.108;2023-08-06T02:55:48;100355.97;;;14.98;100.00
73651;BME280;61944;52.538;6.108;2023-08-06T02:58:17;100340.78;;;14.89;100.00
73651;BME280;61944;52.538;6.108;2023-08-06T03:00:43;100358.06;;;14.91;100.00
73651;BME280;61944;52.538;6.108;2023-08-06T03:03:09;100346.28;;;14.99;100.00
73651;BME280;61944;52.538;6.108;2023-08-06T03:05:34;100334.69;;;14.94;100.00
73651;BME280;61944;52.538;6.108;2023-08-06T03:08:00;100327.34;;;15.00;100.00
73651;BME280;61944;52.538;6.108;2023-08-06T03:10:26;100343.22;;;14.87;100.00
73651;BME280;61944;52.538;6.108;2023-08-06T03:12:51;100341.63;;;14.86;100.00
73651;BME280;61944;52.538;6.108;2023-08-06T03:15:17;100343.59;;;14.89;100.00
73651;BME280;61944;52.538;6.108;2023-08-06T03:17:42;100346.59;;;15.05;100.00
73651;BME280;61944;52.538;6.108;2023-08-06T03:20:09;100337.41;;;15.01;100.00
73651;BME280;61944;52.538;6.108;2023-08-06T03:22:35;100348.66;;;15.01;100.00
73651;BME280;61944;52.538;6.108;2023-08-06T03:25:02;100334.69;;;14.94;100.00
73651;BME280;61944;52.538;6.108;2023-08-06T03:27:27;100337.28;;;15.12;100.00
73651;BME280;61944;52.538;6.108;2023-08-06T03:29:53;100341.66;;;15.16;100.00
73651;BME280;61944;52.538;6.108;2023-08-06T03:32:18;100333.34;;;15.06;100.00
73651;BME280;61944;52.538;6.108;2023-08-06T03:34:43;100332.59;;;15.01;100.00
73651;BME280;61944;52.538;6.108;2023-08-06T03:37:09;100363.69;;;15.25;100.00
73651;BME280;61944;52.538;6.108;2023-08-06T03:39:34;100355.34;;;15.18;100.00
73651;BME280;61944;52.538;6.108;2023-08-06T03:42:00;100350.88;;;15.20;100.00
73651;BME280;61944;52.538;6.108;2023-08-06T03:44:26;100341.44;;;15.00;100.00
73651;BME280;61944;52.538;6.108;2023-08-06T03:46:53;100353.69;;;14.86;100.00
73651;BME280;61944;52.538;6.108;2023-08-06T03:49:19;100339.72;;;14.75;100.00
73651;BME280;61944;52.538;6.108;2023-08-06T03:51:44;100347.63;;;14.88;100.00
73651;BME280;61944;52.538;6.108;2023-08-06T03:54:09;100335.56;;;14.87;100.00
73651;BME280;61944;52.538;6.108;2023-08-06T03:56:35;100335.81;;;15.00;100.00
73651;BME280;61944;52.538;6.108;2023-08-06T03:59:01;100336.06;;;14.78;100.00
73651;BME280;61944;52.538;6.108;2023-08-06T04:01:26;100342.31;;;14.97;100.00
73651;BME280;61944;52.538;6.108;2023-08-06T04:03:51;100361.38;;;15.16;100.00
73651;BME280;61944;52.538;6.108;2023-08-06T04:06:17;100347.00;;;15.07;100.00
73651;BME280;61944;52.538;6.108;2023-08-06T04:08:42;100335.34;;;15.05;100.00
73651;BME280;61944;52.538;6.108;2023-08-06T04:11:08;100339.25;;;15.15;100.00
73651;BME280;61944;52.538;6.108;2023-08-06T04:13:33;100329.25;;;15.10;100.00
73651;BME280;61944;52.538;6.108;2023-08-06T04:16:02;100349.34;;;15.12;100.00
73651;BME280;61944;52.538;6.108;2023-08-06T04:18:28;100334.97;;;15.03;100.00
73651;BME280;61944;52.538;6.108;2023-08-06T04:20:54;100342.22;;;15.04;100.00
73651;BME280;61944;52.538;6.108;2023-08-06T04:23:20;100349.25;;;15.19;100.00
73651;BME280;61944;52.538;6.108;2023-08-06T04:25:46;100354.97;;;15.16;100.00
73651;BME280;61944;52.538;6.108;2023-08-06T04:28:11;100360.53;;;15.19;100.00
73651;BME280;61944;52.538;6.108;2023-08-06T04:30:37;100344.47;;;15.16;100.00
73651;BME280;61944;52.538;6.108;2023-08-06T04:33:03;100343.78;;;15.05;100.00
73651;BME280;61944;52.538;6.108;2023-08-06T04:35:28;100341.31;;;15.11;100.00
73651;BME280;61944;52.538;6.108;2023-08-06T04:37:54;100350.56;;;15.11;100.00
73651;BME280;61944;52.538;6.108;2023-08-06T04:40:19;100358.25;;;15.07;100.00
73651;BME280;61944;52.538;6.108;2023-08-06T04:42:45;100339.88;;;14.99;100.00
73651;BME280;61944;52.538;6.108;2023-08-06T04:45:10;100356.56;;;15.13;100.00
73651;BME280;61944;52.538;6.108;2023-08-06T04:47:37;100355.81;;;15.09;100.00
73651;BME280;61944;52.538;6.108;2023-08-06T04:50:02;100343.88;;;14.98;100.00
73651;BME280;61944;52.538;6.108;2023-08-06T04:52:28;100354.28;;;15.04;100.00
73651;BME280;61944;52.538;6.108;2023-08-06T04:54:54;100372.66;;;15.16;100.00
73651;BME280;61944;52.538;6.108;2023-08-06T04:57:20;100357.47;;;15.07;100.00
73651;BME280;61944;52.538;6.108;2023-08-06T04:59:45;100355.88;;;15.06;100.00
73651;BME280;61944;52.538;6.108;2023-08-06T05:02:11;100361.84;;;15.11;100.00
73651;BME280;61944;52.538;6.108;2023-08-06T05:04:36;100371.81;;;15.19;100.00
73651;BME280;61944;52.538;6.108;2023-08-06T05:07:02;100373.34;;;15.24;100.00
73651;BME280;61944;52.538;6.108;2023-08-06T05:09:27;100366.31;;;15.09;100.00
73651;BME280;61944;52.538;6.108;2023-08-06T05:11:53;100375.56;;;15.09;100.00
73651;BME280;61944;52.538;6.108;2023-08-06T05:14:18;100354.38;;;14.97;100.00
73651;BME280;61944;52.538;6.108;2023-08-06T05:16:44;100373.41;;;15.20;100.00
73651;BME280;61944;52.538;6.108;2023-08-06T05:19:09;100374.56;;;15.27;100.00
73651;BME280;61944;52.538;6.108;2023-08-06T05:21:34;100355.81;;;15.09;100.00
73651;BME280;61944;52.538;6.108;2023-08-06T05:24:00;100382.25;;;15.22;100.00
73651;BME280;61944;52.538;6.108;2023-08-06T05:26:25;100369.13;;;15.09;100.00
73651;BME280;61944;52.538;6.108;2023-08-06T05:28:51;100388.72;;;15.19;100.00
73651;BME280;61944;52.538;6.108;2023-08-06T05:31:16;100387.41;;;15.28;100.00
73651;BME280;61944;52.538;6.108;2023-08-06T05:33:42;100378.50;;;15.33;100.00
73651;BME280;61944;52.538;6.108;2023-08-06T05:36:07;100387.03;;;15.25;100.00
73651;BME280;61944;52.538;6.108;2023-08-06T05:38:32;100385.06;;;15.22;100.00
73651;BME280;61944;52.538;6.108;2023-08-06T05:40:58;100385.50;;;15.21;100.00
73651;BME280;61944;52.538;6.108;2023-08-06T05:43:23;100378.94;;;15.28;100.00
73651;BME280;61944;52.538;6.108;2023-08-06T05:45:52;100388.59;;;15.30;100.00
73651;BME280;61944;52.538;6.108;2023-08-06T05:48:17;100388.91;;;15.36;100.00
73651;BME280;61944;52.538;6.108;2023-08-06T05:50:43;100384.59;;;15.28;100.00
73651;BME280;61944;52.538;6.108;2023-08-06T05:53:09;100391.75;;;15.36;100.00
73651;BME280;61944;52.538;6.108;2023-08-06T05:55:34;100377.44;;;15.19;100.00
73651;BME280;61944;52.538;6.108;2023-08-06T05:58:00;100404.97;;;15.39;100.00
73651;BME280;61944;52.538;6.108;2023-08-06T06:00:26;100397.38;;;15.36;100.00
73651;BME280;61944;52.538;6.108;2023-08-06T06:02:51;100388.69;;;15.23;100.00
73651;BME280;61944;52.538;6.108;2023-08-06T06:05:18;100402.22;;;15.35;100.00
73651;BME280;61944;52.538;6.108;2023-08-06T06:07:43;100405.06;;;15.35;100.00
73651;BME280;61944;52.538;6.108;2023-08-06T06:10:09;100402.16;;;15.39;100.00
73651;BME280;61944;52.538;6.108;2023-08-06T06:12:34;100405.34;;;15.41;100.00
73651;BME280;61944;52.538;6.108;2023-08-06T06:15:00;100402.25;;;15.32;100.00
73651;BME280;61944;52.538;6.108;2023-08-06T06:17:29;100416.75;;;15.34;100.00
73651;BME280;61944;52.538;6.108;2023-08-06T06:19:54;100397.03;;;15.30;100.00
73651;BME280;61944;52.538;6.108;2023-08-06T06:22:20;100419.09;;;15.39;100.00
73651;BME280;61944;52.538;6.108;2023-08-06T06:24:45;100414.31;;;15.36;100.00
73651;BME280;61944;52.538;6.108;2023-08-06T06:27:11;100421.06;;;15.42;100.00
73651;BME280;61944;52.538;6.108;2023-08-06T06:29:36;100412.88;;;15.51;100.00
73651;BME280;61944;52.538;6.108;2023-08-06T06:32:02;100412.84;;;15.55;100.00
73651;BME280;61944;52.538;6.108;2023-08-06T06:34:28;100397.66;;;15.45;100.00
73651;BME280;61944;52.538;6.108;2023-08-06T06:36:54;100402.03;;;15.50;100.00
73651;BME280;61944;52.538;6.108;2023-08-06T06:39:20;100403.50;;;15.31;100.00
73651;BME280;61944;52.538;6.108;2023-08-06T06:41:46;100418.91;;;15.53;100.00
73651;BME280;61944;52.538;6.108;2023-08-06T06:44:11;100419.72;;;15.54;100.00
73651;BME280;61944;52.538;6.108;2023-08-06T06:46:37;100406.13;;;15.45;100.00
73651;BME280;61944;52.538;6.108;2023-08-06T06:49:02;100426.06;;;15.61;100.00
73651;BME280;61944;52.538;6.108;2023-08-06T06:51:27;100413.31;;;15.50;100.00
73651;BME280;61944;52.538;6.108;2023-08-06T06:53:53;100423.72;;;15.56;100.00
73651;BME280;61944;52.538;6.108;2023-08-06T06:56:18;100420.75;;;15.67;100.00
73651;BME280;61944;52.538;6.108;2023-08-06T06:58:44;100420.28;;;15.72;100.00
73651;BME280;61944;52.538;6.108;2023-08-06T07:01:09;100416.28;;;15.70;100.00
73651;BME280;61944;52.538;6.108;2023-08-06T07:03:37;100427.69;;;15.59;100.00
73651;BME280;61944;52.538;6.108;2023-08-06T07:06:02;100427.31;;;15.57;100.00
73651;BME280;61944;52.538;6.108;2023-08-06T07:08:29;100432.63;;;15.51;100.00
73651;BME280;61944;52.538;6.108;2023-08-06T07:11:06;100427.44;;;15.50;100.00
73651;BME280;61944;52.538;6.108;2023-08-06T07:13:32;100419.25;;;15.59;100.00
73651;BME280;61944;52.538;6.108;2023-08-06T07:15:58;100427.75;;;15.55;100.00
73651;BME280;61944;52.538;6.108;2023-08-06T07:18:24;100424.66;;;15.46;100.00
73651;BME280;61944;52.538;6.108;2023-08-06T07:20:53;100417.59;;;15.31;100.00
73651;BME280;61944;52.538;6.108;2023-08-06T07:23:20;100440.16;;;15.61;100.00
73651;BME280;61944;52.538;6.108;2023-08-06T07:25:47;100425.25;;;15.61;100.00
73651;BME280;61944;52.538;6.108;2023-08-06T07:28:13;100427.00;;;15.51;100.00
73651;BME280;61944;52.538;6.108;2023-08-06T07:30:39;100427.38;;;15.53;100.00
73651;BME280;61944;52.538;6.108;2023-08-06T07:33:05;100422.97;;;15.52;100.00
73651;BME280;61944;52.538;6.108;2023-08-06T07:35:32;100434.44;;;15.69;100.00
73651;BME280;61944;52.538;6.108;2023-08-06T07:37:57;100441.41;;;15.60;100.00
73651;BME280;61944;52.538;6.108;2023-08-06T07:40:23;100435.03;;;15.53;100.00
73651;BME280;61944;52.538;6.108;2023-08-06T07:42:48;100440.25;;;15.54;100.00
73651;BME280;61944;52.538;6.108;2023-08-06T07:45:14;100452.97;;;15.66;100.00
73651;BME280;61944;52.538;6.108;2023-08-06T07:47:39;100450.22;;;15.62;100.00
73651;BME280;61944;52.538;6.108;2023-08-06T07:50:05;100444.97;;;15.64;100.00
73651;BME280;61944;52.538;6.108;2023-08-06T07:52:31;100435.41;;;15.55;100.00
73651;BME280;61944;52.538;6.108;2023-08-06T07:54:56;100440.53;;;15.63;100.00
73651;BME280;61944;52.538;6.108;2023-08-06T07:57:22;100444.59;;;15.62;100.00
73651;BME280;61944;52.538;6.108;2023-08-06T07:59:47;100448.47;;;15.76;100.00
73651;BME280;61944;52.538;6.108;2023-08-06T08:02:13;100443.59;;;15.76;100.00
73651;BME280;61944;52.538;6.108;2023-08-06T08:04:38;100453.94;;;15.87;100.00
73651;BME280;61944;52.538;6.108;2023-08-06T08:07:04;100454.97;;;15.73;100.00
73651;BME280;61944;52.538;6.108;2023-08-06T08:09:29;100454.47;;;15.78;100.00
73651;BME280;61944;52.538;6.108;2023-08-06T08:11:55;100452.88;;;15.77;100.00
73651;BME280;61944;52.538;6.108;2023-08-06T08:14:20;100442.53;;;15.67;100.00
73651;BME280;61944;52.538;6.108;2023-08-06T08:16:46;100456.25;;;15.64;100.00
73651;BME280;61944;52.538;6.108;2023-08-06T08:19:11;100464.13;;;15.80;100.00
73651;BME280;61944;52.538;6.108;2023-08-06T08:21:37;100461.34;;;15.77;100.00
73651;BME280;61944;52.538;6.108;2023-08-06T08:24:04;100430.78;;;15.68;100.00
73651;BME280;61944;52.538;6.108;2023-08-06T08:26:29;100446.94;;;15.68;100.00
73651;BME280;61944;52.538;6.108;2023-08-06T08:28:56;100457.31;;;15.78;100.00
73651;BME280;61944;52.538;6.108;2023-08-06T08:31:22;100439.84;;;15.87;100.00
73651;BME280;61944;52.538;6.108;2023-08-06T08:33:47;100449.09;;;15.87;100.00
73651;BME280;61944;52.538;6.108;2023-08-06T08:36:13;100463.38;;;16.03;100.00
73651;BME280;61944;52.538;6.108;2023-08-06T08:38:38;100465.47;;;15.99;100.00
73651;BME280;61944;52.538;6.108;2023-08-06T08:41:04;100460.31;;;15.94;100.00
73651;BME280;61944;52.538;6.108;2023-08-06T08:43:30;100474.03;;;15.92;100.00
73651;BME280;61944;52.538;6.108;2023-08-06T08:45:56;100463.06;;;15.98;100.00
73651;BME280;61944;52.538;6.108;2023-08-06T08:48:24;100445.53;;;15.83;100.00
73651;BME280;61944;52.538;6.108;2023-08-06T08:50:50;100470.03;;;16.17;100.00
73651;BME280;61944;52.538;6.108;2023-08-06T08:53:17;100467.81;;;16.04;100.00
73651;BME280;61944;52.538;6.108;2023-08-06T08:55:43;100462.22;;;16.01;100.00
73651;BME280;61944;52.538;6.108;2023-08-06T08:58:13;100464.72;;;16.22;100.00
73651;BME280;61944;52.538;6.108;2023-08-06T09:00:40;100465.63;;;16.16;100.00
73651;BME280;61944;52.538;6.108;2023-08-06T09:03:07;100448.94;;;16.25;100.00
73651;BME280;61944;52.538;6.108;2023-08-06T09:05:33;100472.19;;;16.36;100.00
73651;BME280;61944;52.538;6.108;2023-08-06T09:08:05;100477.22;;;16.49;100.00
73651;BME280;61944;52.538;6.108;2023-08-06T09:10:36;100484.84;;;16.52;100.00
73651;BME280;61944;52.538;6.108;2023-08-06T09:13:02;100470.75;;;16.48;100.00
73651;BME280;61944;52.538;6.108;2023-08-06T09:15:29;100483.69;;;16.49;100.00
73651;BME280;61944;52.538;6.108;2023-08-06T09:17:55;100469.06;;;16.54;100.00
73651;BME280;61944;52.538;6.108;2023-08-06T09:20:20;100466.28;;;16.51;100.00
73651;BME280;61944;52.538;6.108;2023-08-06T09:22:46;100473.91;;;16.54;100.00
73651;BME280;61944;52.538;6.108;2023-08-06T09:25:20;100490.69;;;16.64;100.00
73651;BME280;61944;52.538;6.108;2023-08-06T09:27:46;100496.28;;;16.68;100.00
73651;BME280;61944;52.538;6.108;2023-08-06T09:30:29;100489.47;;;16.65;100.00
73651;BME280;61944;52.538;6.108;2023-08-06T09:32:55;100494.47;;;16.81;100.00
73651;BME280;61944;52.538;6.108;2023-08-06T09:35:21;100488.91;;;16.74;100.00
73651;BME280;61944;52.538;6.108;2023-08-06T09:37:47;100494.19;;;16.72;100.00
73651;BME280;61944;52.538;6.108;2023-08-06T09:40:26;100505.19;;;16.90;100.00
73651;BME280;61944;52.538;6.108;2023-08-06T09:42:52;100495.19;;;16.85;100.00
73651;BME280;61944;52.538;6.108;2023-08-06T09:45:17;100505.72;;;16.85;100.00
73651;BME280;61944;52.538;6.108;2023-08-06T09:47:43;100496.16;;;16.75;100.00
73651;BME280;61944;52.538;6.108;2023-08-06T09:50:18;100509.06;;;16.76;100.00
73651;BME280;61944;52.538;6.108;2023-08-06T09:52:44;100509.75;;;16.84;100.00
73651;BME280;61944;52.538;6.108;2023-08-06T09:55:13;100500.47;;;16.83;100.00
73651;BME280;61944;52.538;6.108;2023-08-06T09:57:42;100505.53;;;16.96;100.00
73651;BME280;61944;52.538;6.108;2023-08-06T10:00:09;100510.19;;;17.06;100.00
73651;BME280;61944;52.538;6.108;2023-08-06T10:02:39;100492.13;;;17.00;100.00
73651;BME280;61944;52.538;6.108;2023-08-06T10:05:06;100518.25;;;17.27;100.00
73651;BME280;61944;52.538;6.108;2023-08-06T10:07:32;100512.03;;;17.36;100.00
73651;BME280;61944;52.538;6.108;2023-08-06T10:09:58;100508.00;;;17.37;100.00
73651;BME280;61944;52.538;6.108;2023-08-06T10:12:25;100514.38;;;17.41;100.00
73651;BME280;61944;52.538;6.108;2023-08-06T10:14:54;100515.00;;;17.49;100.00
73651;BME280;61944;52.538;6.108;2023-08-06T10:17:22;100506.31;;;17.40;100.00
73651;BME280;61944;52.538;6.108;2023-08-06T10:19:49;100497.41;;;17.41;100.00
73651;BME280;61944;52.538;6.108;2023-08-06T10:22:19;100513.81;;;17.50;100.00
73651;BME280;61944;52.538;6.108;2023-08-06T10:27:12;100506.03;;;17.54;100.00
73651;BME280;61944;52.538;6.108;2023-08-06T10:29:38;100514.72;;;17.63;100.00
73651;BME280;61944;52.538;6.108;2023-08-06T10:32:04;100514.56;;;17.71;100.00
73651;BME280;61944;52.538;6.108;2023-08-06T10:34:55;100510.81;;;17.77;100.00
73651;BME280;61944;52.538;6.108;2023-08-06T10:37:21;100509.44;;;17.65;100.00
73651;BME280;61944;52.538;6.108;2023-08-06T10:39:52;100512.03;;;17.76;100.00
73651;BME280;61944;52.538;6.108;2023-08-06T10:42:36;100514.31;;;17.85;100.00
73651;BME280;61944;52.538;6.108;2023-08-06T10:47:39;100507.25;;;17.93;100.00
73651;BME280;61944;52.538;6.108;2023-08-06T10:50:07;100505.75;;;18.25;100.00
73651;BME280;61944;52.538;6.108;2023-08-06T10:52:34;100505.56;;;18.48;100.00
73651;BME280;61944;52.538;6.108;2023-08-06T10:54:59;100512.00;;;18.85;100.00
73651;BME280;61944;52.538;6.108;2023-08-06T10:57:25;100499.91;;;18.65;100.00
73651;BME280;61944;52.538;6.108;2023-08-06T10:59:50;100499.91;;;18.48;100.00
73651;BME280;61944;52.538;6.108;2023-08-06T11:02:16;100498.03;;;18.25;100.00
73651;BME280;61944;52.538;6.108;2023-08-06T11:04:41;100501.47;;;18.17;100.00
73651;BME280;61944;52.538;6.108;2023-08-06T11:07:07;100508.47;;;18.12;100.00
73651;BME280;61944;52.538;6.108;2023-08-06T11:09:32;100503.59;;;18.13;100.00
73651;BME280;61944;52.538;6.108;2023-08-06T11:11:57;100494.13;;;18.19;100.00
73651;BME280;61944;52.538;6.108;2023-08-06T11:14:23;100496.44;;;18.24;100.00
73651;BME280;61944;52.538;6.108;2023-08-06T11:16:48;100495.66;;;18.24;100.00
73651;BME280;61944;52.538;6.108;2023-08-06T11:19:15;100498.56;;;18.20;100.00
73651;BME280;61944;52.538;6.108;2023-08-06T11:21:42;100497.25;;;18.25;100.00
73651;BME280;61944;52.538;6.108;2023-08-06T11:24:10;100478.03;;;18.16;100.00
73651;BME280;61944;52.538;6.108;2023-08-06T11:26:36;100490.44;;;18.22;100.00
73651;BME280;61944;52.538;6.108;2023-08-06T11:29:02;100494.69;;;18.31;100.00
73651;BME280;61944;52.538;6.108;2023-08-06T11:31:28;100488.94;;;18.34;100.00
73651;BME280;61944;52.538;6.108;2023-08-06T11:33:54;100500.44;;;18.27;100.00
73651;BME280;61944;52.538;6.108;2023-08-06T11:36:33;100504.16;;;18.40;100.00
73651;BME280;61944;52.538;6.108;2023-08-06T11:38:59;100478.91;;;18.29;100.00
73651;BME280;61944;52.538;6.108;2023-08-06T11:41:27;100477.34;;;18.28;100.00
73651;BME280;61944;52.538;6.108;2023-08-06T11:43:53;100484.78;;;18.39;100.00
73651;BME280;61944;52.538;6.108;2023-08-06T11:46:18;100492.81;;;18.40;100.00
73651;BME280;61944;52.538;6.108;2023-08-06T11:48:54;100493.44;;;18.48;100.00
73651;BME280;61944;52.538;6.108;2023-08-06T11:51:26;100485.22;;;18.54;100.00
73651;BME280;61944;52.538;6.108;2023-08-06T11:53:57;100497.19;;;18.94;100.00
73651;BME280;61944;52.538;6.108;2023-08-06T11:56:27;100502.00;;;19.26;100.00
73651;BME280;61944;52.538;6.108;2023-08-06T11:58:54;100504.72;;;19.01;100.00
73651;BME280;61944;52.538;6.108;2023-08-06T12:01:19;100505.50;;;19.01;100.00
73651;BME280;61944;52.538;6.108;2023-08-06T12:03:45;100479.81;;;18.76;100.00
73651;BME280;61944;52.538;6.108;2023-08-06T12:06:10;100487.34;;;18.66;100.00
73651;BME280;61944;52.538;6.108;2023-08-06T12:08:36;100483.28;;;18.67;100.00
73651;BME280;61944;52.538;6.108;2023-08-06T12:11:03;100486.81;;;18.71;100.00
73651;BME280;61944;52.538;6.108;2023-08-06T12:13:28;100487.34;;;18.66;100.00
73651;BME280;61944;52.538;6.108;2023-08-06T12:15:54;100495.97;;;18.79;100.00
73651;BME280;61944;52.538;6.108;2023-08-06T12:18:22;100496.84;;;18.92;100.00
73651;BME280;61944;52.538;6.108;2023-08-06T12:20:49;100501.09;;;19.00;100.00
73651;BME280;61944;52.538;6.108;2023-08-06T12:23:15;100495.13;;;18.95;100.00
73651;BME280;61944;52.538;6.108;2023-08-06T12:25:43;100507.03;;;18.89;100.00
73651;BME280;61944;52.538;6.108;2023-08-06T12:28:10;100493.81;;;18.66;100.00
73651;BME280;61944;52.538;6.108;2023-08-06T12:30:35;100507.38;;;18.75;100.00
73651;BME280;61944;52.538;6.108;2023-08-06T12:33:04;100505.25;;;18.63;100.00
73651;BME280;61944;52.538;6.108;2023-08-06T12:35:29;100506.94;;;18.60;100.00
73651;BME280;61944;52.538;6.108;2023-08-06T12:37:55;100510.38;;;18.52;100.00
73651;BME280;61944;52.538;6.108;2023-08-06T12:40:22;100506.84;;;18.47;100.00
73651;BME280;61944;52.538;6.108;2023-08-06T12:42:50;100510.81;;;18.50;100.00
73651;BME280;61944;52.538;6.108;2023-08-06T12:45:15;100500.63;;;18.53;100.00
73651;BME280;61944;52.538;6.108;2023-08-06T12:47:40;100510.63;;;18.57;100.00